createdAt,value
2023-04-09T00:03:32.690Z,12.00
2023-04-09T00:07:35.475Z,10.73
2023-04-09T00:11:38.189Z,11.30
2023-04-09T00:15:42.486Z,11.13
2023-04-09T00:19:45.404Z,11.67
2023-04-09T00:23:48.122Z,11.43
2023-04-09T00:27:51.041Z,11.20
2023-04-09T00:31:55.357Z,11.70
2023-04-09T00:35:58.031Z,10.73
2023-04-09T00:40:00.978Z,11.40
2023-04-09T00:44:03.710Z,11.90
2023-04-09T00:48:08.725Z,11.90
2023-04-09T00:52:11.636Z,11.23
2023-04-09T00:56:15.005Z,11.80
2023-04-09T01:00:17.895Z,13.30
2023-04-09T01:04:22.119Z,13.20
2023-04-09T01:08:34.099Z,13.43
2023-04-09T01:12:40.203Z,13.00
2023-04-09T01:16:45.507Z,12.87
2023-04-09T01:20:54.931Z,12.27
2023-04-09T01:25:05.568Z,12.00
2023-04-09T01:29:10.293Z,11.93
2023-04-09T01:33:13.613Z,12.30
2023-04-09T01:37:17.204Z,11.90
2023-04-09T01:41:22.665Z,11.93
2023-04-09T01:45:27.135Z,12.67
2023-04-09T01:49:30.197Z,12.40
2023-04-09T01:53:32.833Z,12.73
2023-04-09T01:57:35.532Z,11.83
2023-04-09T02:01:45.162Z,12.53
2023-04-09T02:05:51.996Z,12.33
2023-04-09T02:09:55.652Z,12.33
2023-04-09T02:13:59.404Z,13.10
2023-04-09T02:18:03.513Z,13.00
2023-04-09T02:22:06.299Z,11.63
2023-04-09T02:26:09.255Z,11.90
2023-04-09T02:30:12.606Z,11.77
2023-04-09T02:34:16.658Z,11.37
2023-04-09T02:38:19.806Z,12.77
2023-04-09T02:42:22.675Z,12.43
2023-04-09T02:46:25.462Z,12.83
2023-04-09T02:50:29.967Z,13.83
2023-04-09T02:54:32.666Z,13.47
2023-04-09T02:58:35.365Z,13.40
2023-04-09T03:02:38.314Z,13.40
2023-04-09T03:06:42.682Z,13.07
2023-04-09T03:10:45.407Z,13.10
2023-04-09T03:14:48.084Z,12.77
2023-04-09T03:18:51.238Z,13.07
2023-04-09T03:22:55.501Z,13.07
2023-04-09T03:26:58.453Z,12.77
2023-04-09T03:31:01.204Z,12.03
2023-04-09T03:35:04.204Z,12.37
2023-04-09T03:39:08.195Z,12.57
2023-04-09T03:43:10.882Z,12.43
2023-04-09T03:47:13.861Z,12.80
2023-04-09T03:51:16.876Z,12.67
2023-04-09T03:55:21.298Z,12.43
2023-04-09T03:59:24.022Z,12.60
2023-04-09T04:03:27.121Z,12.77
2023-04-09T04:07:29.951Z,13.23
2023-04-09T04:11:34.044Z,12.30
2023-04-09T04:15:41.072Z,12.57
2023-04-09T04:19:43.781Z,13.10
2023-04-09T04:23:46.402Z,14.77
2023-04-09T04:27:50.887Z,12.83
2023-04-09T04:31:53.613Z,12.80
2023-04-09T04:36:06.400Z,12.17
2023-04-09T04:40:10.344Z,13.23
2023-04-09T04:44:14.683Z,12.63
2023-04-09T04:48:17.347Z,13.07
2023-04-09T04:52:20.098Z,12.93
2023-04-09T04:56:22.867Z,12.73
2023-04-09T05:00:26.909Z,12.37
2023-04-09T05:04:29.618Z,12.73
2023-04-09T05:08:35.237Z,12.73
2023-04-09T05:12:37.903Z,18.23
2023-04-09T05:16:42.244Z,31.90
2023-04-09T05:20:44.969Z,20.03
2023-04-09T05:24:47.806Z,19.73
2023-04-09T05:28:50.891Z,16.33
2023-04-09T05:32:55.045Z,18.10
2023-04-09T05:36:58.119Z,15.87
2023-04-09T05:41:01.070Z,14.97
2023-04-09T05:45:03.976Z,15.83
2023-04-09T05:49:08.097Z,21.60
2023-04-09T05:53:10.885Z,18.70
2023-04-09T05:57:13.597Z,18.10
2023-04-09T06:01:16.396Z,15.80
2023-04-09T06:05:20.801Z,14.93
2023-04-09T06:09:23.801Z,14.33
2023-04-09T06:13:26.842Z,13.60
2023-04-09T06:17:30.365Z,13.50
2023-04-09T06:21:34.440Z,13.90
2023-04-09T06:25:37.287Z,13.33
2023-04-09T06:29:40.036Z,12.27
2023-04-09T06:33:43.001Z,11.90
2023-04-09T06:37:47.137Z,12.73
2023-04-09T06:41:49.877Z,12.13
2023-04-09T06:45:52.592Z,12.90
2023-04-09T06:49:55.568Z,13.13
2023-04-09T06:53:59.986Z,12.17
2023-04-09T06:58:03.304Z,11.50
2023-04-09T07:02:06.177Z,12.00
2023-04-09T07:06:09.018Z,11.57
2023-04-09T07:10:13.206Z,12.67
2023-04-09T07:14:15.915Z,12.27
2023-04-09T07:18:18.665Z,12.17
2023-04-09T07:22:22.536Z,12.33
2023-04-09T07:26:27.049Z,12.70
2023-04-09T07:30:29.765Z,12.53
2023-04-09T07:34:32.456Z,12.50
2023-04-09T07:38:35.195Z,13.00
2023-04-09T07:42:40.072Z,12.30
2023-04-09T07:46:42.824Z,12.23
2023-04-09T07:50:46.013Z,11.73
2023-04-09T07:54:48.925Z,12.03
2023-04-09T07:58:53.595Z,12.97
2023-04-09T08:02:57.434Z,12.30
2023-04-09T08:07:00.736Z,11.50
2023-04-09T08:11:03.666Z,12.13
2023-04-09T08:15:08.791Z,11.33
2023-04-09T08:19:11.785Z,10.77
2023-04-09T08:23:14.475Z,10.10
2023-04-09T08:27:17.949Z,10.60
2023-04-09T08:31:22.064Z,9.47
2023-04-09T08:35:24.827Z,11.00
2023-04-09T08:39:27.618Z,10.70
2023-04-09T08:43:52.672Z,9.73
2023-04-09T08:47:59.605Z,9.97
2023-04-09T08:52:05.678Z,10.13
2023-04-09T08:56:08.421Z,7.37
2023-04-09T09:00:12.309Z,9.17
2023-04-09T09:04:16.586Z,8.57
2023-04-09T09:08:24.985Z,8.00
2023-04-09T09:12:32.516Z,8.87
2023-04-09T09:16:35.917Z,9.17
2023-04-09T09:20:40.637Z,8.80
2023-04-09T09:24:49.789Z,9.37
2023-04-09T09:28:53.507Z,9.13
2023-04-09T09:33:06.721Z,9.33
2023-04-09T09:37:27.325Z,8.23
2023-04-09T09:41:30.992Z,8.30
2023-04-09T09:45:34.417Z,7.40
2023-04-09T09:49:37.552Z,7.83
2023-04-09T09:53:48.389Z,8.53
2023-04-09T09:57:53.248Z,7.83
2023-04-09T10:01:59.397Z,7.13
2023-04-09T10:06:02.882Z,7.13
2023-04-09T10:10:09.088Z,7.57
2023-04-09T10:14:11.845Z,7.77
2023-04-09T10:18:15.378Z,6.60
2023-04-09T10:22:22.933Z,8.30
2023-04-09T10:26:30.796Z,7.23
2023-04-09T10:30:34.210Z,8.00
2023-04-09T10:34:39.231Z,8.20
2023-04-09T10:38:42.959Z,7.90
2023-04-09T10:42:47.906Z,8.20
2023-04-09T10:46:51.306Z,7.73
2023-04-09T10:50:54.482Z,8.20
2023-04-09T10:54:57.387Z,7.23
2023-04-09T10:59:01.725Z,6.60
2023-04-09T11:03:17.802Z,7.00
2023-04-09T11:07:24.078Z,6.57
2023-04-09T11:11:28.402Z,7.37
2023-04-09T11:15:35.549Z,6.60
2023-04-09T11:19:38.242Z,7.63
2023-04-09T11:23:42.240Z,6.97
2023-04-09T11:27:47.003Z,6.60
2023-04-09T11:31:52.593Z,6.83
2023-04-09T11:35:55.641Z,7.43
2023-04-09T11:39:58.573Z,6.73
2023-04-09T11:44:05.521Z,6.80
2023-04-09T11:48:09.702Z,6.77
2023-04-09T11:52:12.414Z,6.10
2023-04-09T11:56:15.126Z,5.10
2023-04-09T12:00:18.866Z,5.67
2023-04-09T12:04:23.140Z,5.30
2023-04-09T12:08:25.952Z,4.93
2023-04-09T12:12:28.711Z,5.47
2023-04-09T12:16:32.109Z,4.70
2023-04-09T12:20:39.416Z,4.87
2023-04-09T12:24:42.162Z,4.80
2023-04-09T12:28:44.838Z,5.30
2023-04-09T12:32:47.622Z,4.60
2023-04-09T12:36:51.931Z,5.27
2023-04-09T12:40:54.636Z,5.50
2023-04-09T12:44:57.361Z,5.20
2023-04-09T12:49:00.030Z,5.53
2023-04-09T12:53:04.040Z,5.80
2023-04-09T12:57:06.849Z,5.07
2023-04-09T13:01:09.629Z,5.60
2023-04-09T13:05:12.510Z,4.83
2023-04-09T13:09:16.998Z,4.80
2023-04-09T13:13:19.675Z,4.43
2023-04-09T13:17:23.073Z,5.27
2023-04-09T13:21:26.385Z,4.70
2023-04-09T13:25:30.880Z,4.60
2023-04-09T13:29:33.901Z,4.73
2023-04-09T13:33:36.562Z,4.70
2023-04-09T13:37:39.256Z,5.30
2023-04-09T13:41:43.615Z,5.07
2023-04-09T13:45:47.755Z,4.63
2023-04-09T13:49:51.424Z,4.57
2023-04-09T13:53:54.204Z,4.67
2023-04-09T13:57:58.284Z,4.60
2023-04-09T14:02:01.693Z,5.67
2023-04-09T14:06:05.012Z,4.67
2023-04-09T14:10:09.019Z,4.37
2023-04-09T14:14:13.136Z,5.10
2023-04-09T14:18:16.540Z,4.77
2023-04-09T14:22:22.296Z,4.83
2023-04-09T14:26:25.363Z,4.67
2023-04-09T14:30:31.155Z,5.17
2023-04-09T14:34:34.536Z,4.80
2023-04-09T14:38:38.070Z,5.10
2023-04-09T14:42:44.252Z,4.83
2023-04-09T14:46:49.900Z,4.67
2023-04-09T14:50:52.903Z,5.83
2023-04-09T14:54:55.590Z,4.73
2023-04-09T14:58:58.376Z,4.87
2023-04-09T15:03:02.701Z,4.80
2023-04-09T15:07:06.756Z,5.07
2023-04-09T15:11:09.808Z,5.57
2023-04-09T15:15:14.385Z,5.17
2023-04-09T15:19:18.835Z,4.87
2023-04-09T15:23:21.802Z,4.87
2023-04-09T15:27:24.571Z,5.43
2023-04-09T15:31:27.278Z,6.43
2023-04-09T15:35:31.736Z,5.63
2023-04-09T15:39:35.068Z,6.17
2023-04-09T15:43:38.166Z,4.87
2023-04-09T15:47:40.898Z,4.97
2023-04-09T15:51:45.208Z,5.10
2023-04-09T15:55:49.336Z,5.03
2023-04-09T15:59:52.387Z,5.23
2023-04-09T16:03:55.185Z,4.93
2023-04-09T16:07:59.982Z,5.30
2023-04-09T16:12:03.335Z,5.60
2023-04-09T16:16:07.312Z,4.90
2023-04-09T16:20:12.343Z,4.90
2023-04-09T16:24:16.443Z,7.57
2023-04-09T16:28:21.213Z,7.83
2023-04-09T16:32:24.418Z,5.17
2023-04-09T16:36:27.846Z,5.70
2023-04-09T16:40:32.240Z,5.63
2023-04-09T16:44:34.956Z,5.33
2023-04-09T16:48:41.629Z,5.03
2023-04-09T16:52:44.714Z,5.50
2023-04-09T16:56:49.405Z,5.70
2023-04-09T17:00:52.314Z,5.77
2023-04-09T17:04:55.087Z,5.63
2023-04-09T17:08:58.118Z,5.43
2023-04-09T17:13:03.475Z,4.57
2023-04-09T17:17:07.103Z,5.07
2023-04-09T17:21:09.921Z,5.93
2023-04-09T17:25:12.721Z,6.20
2023-04-09T17:29:17.304Z,6.00
2023-04-09T17:33:20.286Z,6.27
2023-04-09T17:37:23.256Z,6.63
2023-04-09T17:41:27.736Z,6.70
2023-04-09T17:45:32.064Z,6.67
2023-04-09T17:49:34.845Z,6.10
2023-04-09T17:53:37.542Z,6.13
2023-04-09T17:57:40.874Z,6.30
2023-04-09T18:01:45.039Z,6.43
2023-04-09T18:05:47.902Z,6.80
2023-04-09T18:09:50.869Z,7.10
2023-04-09T18:13:53.570Z,6.93
2023-04-09T18:17:58.286Z,6.47
2023-04-09T18:22:01.031Z,6.83
2023-04-09T18:26:03.763Z,6.80
2023-04-09T18:30:09.479Z,6.60
2023-04-09T18:34:14.416Z,7.27
2023-04-09T18:38:18.550Z,7.07
2023-04-09T18:42:22.563Z,7.80
2023-04-09T18:46:26.722Z,8.20
2023-04-09T18:50:31.304Z,8.77
2023-04-09T18:54:37.154Z,8.53
2023-04-09T18:58:40.744Z,7.73
2023-04-09T19:02:43.922Z,8.40
2023-04-09T19:06:49.317Z,8.03
2023-04-09T19:10:53.611Z,5.67
2023-04-09T19:14:56.345Z,8.17
2023-04-09T19:18:59.582Z,7.97
2023-04-09T19:23:03.665Z,8.50
2023-04-09T19:27:09.811Z,8.53
2023-04-09T19:31:14.319Z,9.20
2023-04-09T19:35:17.605Z,9.50
2023-04-09T19:39:22.924Z,11.13
2023-04-09T19:43:28.566Z,15.47
2023-04-09T19:47:32.106Z,14.20
2023-04-09T19:51:34.895Z,12.30
2023-04-09T19:55:40.085Z,11.03
2023-04-09T19:59:44.182Z,11.20
2023-04-09T20:03:47.375Z,12.43
2023-04-09T20:07:53.038Z,15.70
2023-04-09T20:11:58.382Z,12.57
2023-04-09T20:16:02.212Z,11.53
2023-04-09T20:20:06.795Z,11.20
2023-04-09T20:24:10.147Z,11.33
2023-04-09T20:28:16.342Z,11.07
2023-04-09T20:32:19.325Z,12.10
2023-04-09T20:36:23.306Z,12.70
2023-04-09T20:40:26.542Z,13.27
2023-04-09T20:44:30.801Z,13.07
2023-04-09T20:48:35.564Z,13.23
2023-04-09T20:52:38.967Z,13.47
2023-04-09T20:56:41.828Z,13.20
2023-04-09T21:00:45.946Z,12.87
2023-04-09T21:04:49.132Z,14.10
2023-04-09T21:08:52.620Z,12.97
2023-04-09T21:12:56.383Z,12.10
2023-04-09T21:17:00.492Z,11.17
2023-04-09T21:21:07.386Z,11.73
2023-04-09T21:25:10.281Z,11.90
2023-04-09T21:29:13.095Z,11.90
2023-04-09T21:33:20.358Z,11.60
2023-04-09T21:37:23.398Z,12.17
2023-04-09T21:41:26.090Z,11.80
2023-04-09T21:45:29.659Z,11.87
2023-04-09T21:49:34.066Z,10.40
2023-04-09T21:53:36.926Z,10.77
2023-04-09T21:57:39.596Z,9.80
2023-04-09T22:01:42.392Z,10.53
2023-04-09T22:05:46.441Z,11.17
2023-04-09T22:09:49.103Z,11.63
2023-04-09T22:13:51.822Z,22.40
2023-04-09T22:17:54.513Z,16.30
2023-04-09T22:21:59.074Z,14.87
2023-04-09T22:26:02.111Z,11.87
2023-04-09T22:30:05.104Z,11.33
2023-04-09T22:34:19.927Z,11.23
2023-04-09T22:38:25.153Z,11.17
2023-04-09T22:42:29.715Z,12.23
2023-04-09T22:46:32.788Z,11.90
2023-04-09T22:50:36.148Z,14.47
2023-04-09T22:54:45.848Z,12.57
2023-04-09T22:58:48.502Z,12.07
2023-04-09T23:02:51.634Z,12.20
2023-04-09T23:06:54.628Z,12.43
2023-04-09T23:10:58.798Z,12.30
2023-04-09T23:15:01.952Z,11.47
2023-04-09T23:19:04.628Z,12.50
2023-04-09T23:23:07.342Z,12.30
2023-04-09T23:27:11.620Z,12.33
2023-04-09T23:31:14.290Z,12.63
2023-04-09T23:35:20.360Z,11.73
2023-04-09T23:39:23.263Z,12.13
2023-04-09T23:43:27.287Z,12.27
2023-04-09T23:47:30.350Z,12.70
2023-04-09T23:51:35.619Z,12.47
2023-04-09T23:55:41.081Z,12.90
2023-04-09T23:59:45.553Z,12.27
